sensor_id;sensor_type;location;lat;lon;timestamp;P1;durP1;ratioP1;P2;durP2;ratioP2
74100;SDS011;62462;52.530;21.682;2022-09-29T00:00:23;5.93;;;4.57;;
74100;SDS011;62462;52.530;21.682;2022-09-29T00:02:51;6.45;;;4.70;;
74100;SDS011;62462;52.530;21.682;2022-09-29T00:05:17;7.65;;;4.45;;
74100;SDS011;62462;52.530;21.682;2022-09-29T00:07:43;8.43;;;4.88;;
74100;SDS011;62462;52.530;21.682;2022-09-29T00:10:09;5.85;;;4.43;;
74100;SDS011;62462;52.530;21.682;2022-09-29T00:12:34;6.00;;;4.60;;
74100;SDS011;62462;52.530;21.682;2022-09-29T00:15:00;5.80;;;4.28;;
74100;SDS011;62462;52.530;21.682;2022-09-29T00:17:26;5.30;;;3.70;;
74100;SDS011;62462;52.530;21.682;2022-09-29T00:19:52;6.72;;;4.15;;
74100;SDS011;62462;52.530;21.682;2022-09-29T00:22:18;6.78;;;4.03;;
74100;SDS011;62462;52.530;21.682;2022-09-29T00:24:45;7.95;;;4.60;;
74100;SDS011;62462;52.530;21.682;2022-09-29T00:27:13;5.65;;;4.38;;
74100;SDS011;62462;52.530;21.682;2022-09-29T00:29:42;7.63;;;4.88;;
74100;SDS011;62462;52.530;21.682;2022-09-29T00:32:08;5.57;;;4.20;;
74100;SDS011;62462;52.530;21.682;2022-09-29T00:34:34;6.25;;;4.55;;
74100;SDS011;62462;52.530;21.682;2022-09-29T00:37:00;9.80;;;4.75;;
74100;SDS011;62462;52.530;21.682;2022-09-29T00:39:25;7.53;;;4.90;;
74100;SDS011;62462;52.530;21.682;2022-09-29T00:41:51;6.03;;;4.38;;
74100;SDS011;62462;52.530;21.682;2022-09-29T00:46:47;5.78;;;4.40;;
74100;SDS011;62462;52.530;21.682;2022-09-29T00:54:28;7.45;;;5.15;;
74100;SDS011;62462;52.530;21.682;2022-09-29T00:57:01;6.78;;;4.82;;
74100;SDS011;62462;52.530;21.682;2022-09-29T00:59:31;7.20;;;5.20;;
74100;SDS011;62462;52.530;21.682;2022-09-29T01:02:07;8.13;;;5.28;;
74100;SDS011;62462;52.530;21.682;2022-09-29T01:04:33;8.52;;;5.20;;
74100;SDS011;62462;52.530;21.682;2022-09-29T01:06:59;9.05;;;5.78;;
74100;SDS011;62462;52.530;21.682;2022-09-29T01:09:27;13.77;;;6.22;;
74100;SDS011;62462;52.530;21.682;2022-09-29T01:11:59;7.78;;;5.00;;
74100;SDS011;62462;52.530;21.682;2022-09-29T01:14:26;8.43;;;6.15;;
74100;SDS011;62462;52.530;21.682;2022-09-29T01:16:54;12.98;;;5.97;;
74100;SDS011;62462;52.530;21.682;2022-09-29T01:19:34;8.98;;;6.03;;
74100;SDS011;62462;52.530;21.682;2022-09-29T01:31:02;9.68;;;6.38;;
74100;SDS011;62462;52.530;21.682;2022-09-29T01:46:48;10.27;;;6.40;;
74100;SDS011;62462;52.530;21.682;2022-09-29T01:49:21;10.70;;;6.72;;
74100;SDS011;62462;52.530;21.682;2022-09-29T01:51:59;9.75;;;6.60;;
74100;SDS011;62462;52.530;21.682;2022-09-29T01:54:35;12.50;;;7.25;;
74100;SDS011;62462;52.530;21.682;2022-09-29T01:57:07;11.07;;;6.93;;
74100;SDS011;62462;52.530;21.682;2022-09-29T02:07:51;11.23;;;6.90;;
74100;SDS011;62462;52.530;21.682;2022-09-29T02:10:28;12.43;;;7.05;;
74100;SDS011;62462;52.530;21.682;2022-09-29T02:13:00;10.02;;;6.03;;
74100;SDS011;62462;52.530;21.682;2022-09-29T02:15:29;11.35;;;7.32;;
74100;SDS011;62462;52.530;21.682;2022-09-29T02:18:01;10.48;;;6.65;;
74100;SDS011;62462;52.530;21.682;2022-09-29T02:20:35;12.63;;;7.63;;
74100;SDS011;62462;52.530;21.682;2022-09-29T02:23:00;12.40;;;7.32;;
74100;SDS011;62462;52.530;21.682;2022-09-29T02:25:26;15.13;;;8.65;;
74100;SDS011;62462;52.530;21.682;2022-09-29T02:27:52;11.57;;;8.00;;
74100;SDS011;62462;52.530;21.682;2022-09-29T02:30:18;11.75;;;7.40;;
74100;SDS011;62462;52.530;21.682;2022-09-29T02:32:47;11.80;;;7.60;;
74100;SDS011;62462;52.530;21.682;2022-09-29T02:35:13;11.45;;;7.47;;
74100;SDS011;62462;52.530;21.682;2022-09-29T02:45:19;11.20;;;7.85;;
74100;SDS011;62462;52.530;21.682;2022-09-29T02:51:04;12.70;;;8.98;;
74100;SDS011;62462;52.530;21.682;2022-09-29T02:53:44;14.13;;;9.10;;
74100;SDS011;62462;52.530;21.682;2022-09-29T02:56:28;15.10;;;10.27;;
74100;SDS011;62462;52.530;21.682;2022-09-29T02:59:41;16.35;;;10.52;;
74100;SDS011;62462;52.530;21.682;2022-09-29T03:02:10;15.25;;;10.18;;
74100;SDS011;62462;52.530;21.682;2022-09-29T03:04:36;14.15;;;9.77;;
74100;SDS011;62462;52.530;21.682;2022-09-29T03:07:01;14.70;;;10.30;;
74100;SDS011;62462;52.530;21.682;2022-09-29T03:09:27;14.30;;;10.20;;
74100;SDS011;62462;52.530;21.682;2022-09-29T03:11:53;14.35;;;10.13;;
74100;SDS011;62462;52.530;21.682;2022-09-29T03:14:18;13.82;;;9.98;;
74100;SDS011;62462;52.530;21.682;2022-09-29T03:16:44;18.60;;;10.85;;
74100;SDS011;62462;52.530;21.682;2022-09-29T03:19:10;14.40;;;10.95;;
74100;SDS011;62462;52.530;21.682;2022-09-29T03:21:35;13.02;;;10.00;;
74100;SDS011;62462;52.530;21.682;2022-09-29T03:24:01;16.33;;;10.38;;
74100;SDS011;62462;52.530;21.682;2022-09-29T03:26:27;14.43;;;9.50;;
74100;SDS011;62462;52.530;21.682;2022-09-29T03:28:54;14.07;;;9.00;;
74100;SDS011;62462;52.530;21.682;2022-09-29T03:31:20;16.02;;;10.10;;
74100;SDS011;62462;52.530;21.682;2022-09-29T03:33:46;13.15;;;9.32;;
74100;SDS011;62462;52.530;21.682;2022-09-29T03:36:12;12.73;;;8.85;;
74100;SDS011;62462;52.530;21.682;2022-09-29T03:38:37;17.10;;;10.65;;
74100;SDS011;62462;52.530;21.682;2022-09-29T03:41:04;13.95;;;9.32;;
74100;SDS011;62462;52.530;21.682;2022-09-29T03:43:30;17.80;;;10.60;;
74100;SDS011;62462;52.530;21.682;2022-09-29T03:45:56;15.18;;;9.38;;
74100;SDS011;62462;52.530;21.682;2022-09-29T03:48:22;13.43;;;9.40;;
74100;SDS011;62462;52.530;21.682;2022-09-29T03:50:49;13.57;;;9.07;;
74100;SDS011;62462;52.530;21.682;2022-09-29T03:53:16;12.73;;;9.23;;
74100;SDS011;62462;52.530;21.682;2022-09-29T03:55:46;14.18;;;9.32;;
74100;SDS011;62462;52.530;21.682;2022-09-29T03:58:12;11.55;;;8.45;;
74100;SDS011;62462;52.530;21.682;2022-09-29T04:00:38;11.95;;;8.95;;
74100;SDS011;62462;52.530;21.682;2022-09-29T04:03:03;13.48;;;8.57;;
74100;SDS011;62462;52.530;21.682;2022-09-29T04:05:29;11.98;;;8.35;;
74100;SDS011;62462;52.530;21.682;2022-09-29T04:07:55;14.43;;;8.70;;
74100;SDS011;62462;52.530;21.682;2022-09-29T04:10:21;12.77;;;9.45;;
74100;SDS011;62462;52.530;21.682;2022-09-29T04:12:47;11.23;;;8.25;;
74100;SDS011;62462;52.530;21.682;2022-09-29T04:15:12;13.85;;;8.95;;
74100;SDS011;62462;52.530;21.682;2022-09-29T04:17:38;12.77;;;9.07;;
74100;SDS011;62462;52.530;21.682;2022-09-29T04:20:04;13.30;;;9.30;;
74100;SDS011;62462;52.530;21.682;2022-09-29T04:22:31;12.85;;;8.80;;
74100;SDS011;62462;52.530;21.682;2022-09-29T04:24:57;13.98;;;9.32;;
74100;SDS011;62462;52.530;21.682;2022-09-29T04:27:23;16.08;;;9.65;;
74100;SDS011;62462;52.530;21.682;2022-09-29T04:29:49;11.90;;;8.82;;
74100;SDS011;62462;52.530;21.682;2022-09-29T04:32:15;14.70;;;9.27;;
74100;SDS011;62462;52.530;21.682;2022-09-29T04:34:41;12.68;;;9.27;;
74100;SDS011;62462;52.530;21.682;2022-09-29T04:37:07;12.35;;;9.07;;
74100;SDS011;62462;52.530;21.682;2022-09-29T04:39:36;12.05;;;8.95;;
74100;SDS011;62462;52.530;21.682;2022-09-29T04:42:02;9.60;;;8.07;;
74100;SDS011;62462;52.530;21.682;2022-09-29T04:44:28;13.10;;;8.98;;
74100;SDS011;62462;52.530;21.682;2022-09-29T04:46:53;11.02;;;8.10;;
74100;SDS011;62462;52.530;21.682;2022-09-29T04:49:19;10.70;;;7.70;;
74100;SDS011;62462;52.530;21.682;2022-09-29T04:51:45;11.93;;;8.00;;
74100;SDS011;62462;52.530;21.682;2022-09-29T04:54:11;12.07;;;7.95;;
74100;SDS011;62462;52.530;21.682;2022-09-29T04:56:37;10.80;;;8.25;;
74100;SDS011;62462;52.530;21.682;2022-09-29T04:59:02;11.85;;;8.63;;
74100;SDS011;62462;52.530;21.682;2022-09-29T05:01:28;10.45;;;8.18;;
74100;SDS011;62462;52.530;21.682;2022-09-29T05:03:54;10.00;;;7.57;;
74100;SDS011;62462;52.530;21.682;2022-09-29T05:06:20;11.93;;;7.85;;
74100;SDS011;62462;52.530;21.682;2022-09-29T05:08:46;12.18;;;8.68;;
74100;SDS011;62462;52.530;21.682;2022-09-29T05:11:11;10.38;;;8.20;;
74100;SDS011;62462;52.530;21.682;2022-09-29T05:13:37;10.52;;;7.38;;
74100;SDS011;62462;52.530;21.682;2022-09-29T05:16:03;10.88;;;7.38;;
74100;SDS011;62462;52.530;21.682;2022-09-29T05:18:29;10.70;;;8.10;;
74100;SDS011;62462;52.530;21.682;2022-09-29T05:20:56;11.02;;;8.25;;
74100;SDS011;62462;52.530;21.682;2022-09-29T05:23:27;13.20;;;8.50;;
74100;SDS011;62462;52.530;21.682;2022-09-29T05:25:53;14.40;;;8.52;;
74100;SDS011;62462;52.530;21.682;2022-09-29T05:28:19;15.30;;;8.48;;
74100;SDS011;62462;52.530;21.682;2022-09-29T05:30:44;13.70;;;8.35;;
74100;SDS011;62462;52.530;21.682;2022-09-29T05:33:10;9.65;;;7.68;;
74100;SDS011;62462;52.530;21.682;2022-09-29T05:35:36;10.35;;;8.05;;
74100;SDS011;62462;52.530;21.682;2022-09-29T05:38:01;10.35;;;7.50;;
74100;SDS011;62462;52.530;21.682;2022-09-29T05:40:27;12.73;;;8.88;;
74100;SDS011;62462;52.530;21.682;2022-09-29T05:42:53;11.20;;;7.13;;
74100;SDS011;62462;52.530;21.682;2022-09-29T05:45:19;10.05;;;8.20;;
74100;SDS011;62462;52.530;21.682;2022-09-29T05:47:45;12.40;;;8.18;;
74100;SDS011;62462;52.530;21.682;2022-09-29T05:50:11;12.90;;;9.25;;
74100;SDS011;62462;52.530;21.682;2022-09-29T05:52:37;11.45;;;8.00;;
74100;SDS011;62462;52.530;21.682;2022-09-29T05:55:03;13.18;;;9.27;;
74100;SDS011;62462;52.530;21.682;2022-09-29T05:57:30;13.15;;;9.70;;
74100;SDS011;62462;52.530;21.682;2022-09-29T05:59:55;12.15;;;8.57;;
74100;SDS011;62462;52.530;21.682;2022-09-29T06:02:21;12.50;;;9.15;;
74100;SDS011;62462;52.530;21.682;2022-09-29T06:04:47;13.93;;;9.98;;
74100;SDS011;62462;52.530;21.682;2022-09-29T06:07:13;14.25;;;9.50;;
74100;SDS011;62462;52.530;21.682;2022-09-29T06:09:39;14.43;;;10.38;;
74100;SDS011;62462;52.530;21.682;2022-09-29T06:12:05;12.50;;;9.45;;
74100;SDS011;62462;52.530;21.682;2022-09-29T06:14:30;12.80;;;8.95;;
74100;SDS011;62462;52.530;21.682;2022-09-29T06:16:56;14.02;;;9.35;;
74100;SDS011;62462;52.530;21.682;2022-09-29T06:19:22;13.70;;;8.80;;
74100;SDS011;62462;52.530;21.682;2022-09-29T06:21:47;14.13;;;10.13;;
74100;SDS011;62462;52.530;21.682;2022-09-29T06:24:13;15.65;;;9.75;;
74100;SDS011;62462;52.530;21.682;2022-09-29T06:26:39;17.45;;;9.98;;
74100;SDS011;62462;52.530;21.682;2022-09-29T06:29:04;13.52;;;9.75;;
74100;SDS011;62462;52.530;21.682;2022-09-29T06:31:30;13.43;;;9.93;;
74100;SDS011;62462;52.530;21.682;2022-09-29T06:34:00;14.05;;;9.75;;
74100;SDS011;62462;52.530;21.682;2022-09-29T06:36:29;12.88;;;9.32;;
74100;SDS011;62462;52.530;21.682;2022-09-29T06:39:20;15.30;;;10.77;;
74100;SDS011;62462;52.530;21.682;2022-09-29T06:41:46;16.40;;;10.85;;
74100;SDS011;62462;52.530;21.682;2022-09-29T06:44:20;14.30;;;10.40;;
74100;SDS011;62462;52.530;21.682;2022-09-29T06:46:52;13.50;;;9.70;;
74100;SDS011;62462;52.530;21.682;2022-09-29T06:49:18;15.95;;;9.25;;
74100;SDS011;62462;52.530;21.682;2022-09-29T06:51:45;12.30;;;8.80;;
74100;SDS011;62462;52.530;21.682;2022-09-29T06:54:11;11.55;;;8.73;;
74100;SDS011;62462;52.530;21.682;2022-09-29T06:56:38;15.38;;;9.68;;
74100;SDS011;62462;52.530;21.682;2022-09-29T06:59:04;14.90;;;10.18;;
74100;SDS011;62462;52.530;21.682;2022-09-29T07:01:30;13.40;;;9.80;;
74100;SDS011;62462;52.530;21.682;2022-09-29T07:03:56;15.00;;;10.07;;
74100;SDS011;62462;52.530;21.682;2022-09-29T07:06:24;15.43;;;11.27;;
74100;SDS011;62462;52.530;21.682;2022-09-29T07:08:54;16.25;;;10.38;;
74100;SDS011;62462;52.530;21.682;2022-09-29T07:11:23;15.10;;;10.80;;
74100;SDS011;62462;52.530;21.682;2022-09-29T07:13:50;14.50;;;10.20;;
74100;SDS011;62462;52.530;21.682;2022-09-29T07:16:16;15.55;;;10.25;;
74100;SDS011;62462;52.530;21.682;2022-09-29T07:18:42;15.07;;;10.55;;
74100;SDS011;62462;52.530;21.682;2022-09-29T07:21:11;16.70;;;10.55;;
74100;SDS011;62462;52.530;21.682;2022-09-29T07:23:42;15.65;;;11.13;;
74100;SDS011;62462;52.530;21.682;2022-09-29T07:26:09;20.05;;;11.23;;
74100;SDS011;62462;52.530;21.682;2022-09-29T07:28:35;13.57;;;9.98;;
74100;SDS011;62462;52.530;21.682;2022-09-29T07:31:02;16.02;;;10.75;;
74100;SDS011;62462;52.530;21.682;2022-09-29T07:33:30;17.75;;;11.88;;
74100;SDS011;62462;52.530;21.682;2022-09-29T07:35:57;15.27;;;11.05;;
74100;SDS011;62462;52.530;21.682;2022-09-29T07:38:24;18.92;;;11.00;;
74100;SDS011;62462;52.530;21.682;2022-09-29T07:40:51;16.58;;;11.27;;
74100;SDS011;62462;52.530;21.682;2022-09-29T07:43:16;15.63;;;10.30;;
74100;SDS011;62462;52.530;21.682;2022-09-29T07:45:46;13.70;;;9.65;;
74100;SDS011;62462;52.530;21.682;2022-09-29T07:48:13;15.43;;;11.05;;
74100;SDS011;62462;52.530;21.682;2022-09-29T07:50:40;15.88;;;10.13;;
74100;SDS011;62462;52.530;21.682;2022-09-29T07:53:05;13.85;;;9.63;;
74100;SDS011;62462;52.530;21.682;2022-09-29T07:55:31;17.10;;;10.18;;
74100;SDS011;62462;52.530;21.682;2022-09-29T07:57:57;12.52;;;9.40;;
74100;SDS011;62462;52.530;21.682;2022-09-29T08:00:22;13.35;;;9.13;;
74100;SDS011;62462;52.530;21.682;2022-09-29T08:02:48;14.32;;;9.38;;
74100;SDS011;62462;52.530;21.682;2022-09-29T08:05:14;12.77;;;8.88;;
74100;SDS011;62462;52.530;21.682;2022-09-29T08:07:40;15.68;;;9.40;;
74100;SDS011;62462;52.530;21.682;2022-09-29T08:10:05;12.02;;;8.25;;
74100;SDS011;62462;52.530;21.682;2022-09-29T08:12:31;11.93;;;8.55;;
74100;SDS011;62462;52.530;21.682;2022-09-29T08:14:57;12.38;;;8.10;;
74100;SDS011;62462;52.530;21.682;2022-09-29T08:17:23;11.23;;;8.13;;
74100;SDS011;62462;52.530;21.682;2022-09-29T08:19:49;12.55;;;9.05;;
74100;SDS011;62462;52.530;21.682;2022-09-29T08:22:14;11.60;;;8.90;;
74100;SDS011;62462;52.530;21.682;2022-09-29T08:24:40;12.88;;;7.80;;
74100;SDS011;62462;52.530;21.682;2022-09-29T08:27:07;12.70;;;9.18;;
74100;SDS011;62462;52.530;21.682;2022-09-29T08:29:32;14.30;;;8.77;;
74100;SDS011;62462;52.530;21.682;2022-09-29T08:31:58;11.93;;;9.23;;
74100;SDS011;62462;52.530;21.682;2022-09-29T08:34:24;12.23;;;9.43;;
74100;SDS011;62462;52.530;21.682;2022-09-29T08:36:50;13.32;;;7.80;;
74100;SDS011;62462;52.530;21.682;2022-09-29T08:39:16;10.30;;;8.45;;
74100;SDS011;62462;52.530;21.682;2022-09-29T08:47:26;13.93;;;8.40;;
74100;SDS011;62462;52.530;21.682;2022-09-29T08:55:19;11.43;;;8.68;;
74100;SDS011;62462;52.530;21.682;2022-09-29T08:57:58;11.77;;;8.20;;
74100;SDS011;62462;52.530;21.682;2022-09-29T09:00:33;9.25;;;7.00;;
74100;SDS011;62462;52.530;21.682;2022-09-29T09:08:37;9.52;;;7.28;;
74100;SDS011;62462;52.530;21.682;2022-09-29T09:11:26;10.05;;;7.47;;
74100;SDS011;62462;52.530;21.682;2022-09-29T09:16:53;10.85;;;8.20;;
74100;SDS011;62462;52.530;21.682;2022-09-29T09:22:21;9.07;;;7.05;;
74100;SDS011;62462;52.530;21.682;2022-09-29T09:24:58;8.60;;;6.65;;
74100;SDS011;62462;52.530;21.682;2022-09-29T09:27:45;10.18;;;6.53;;
74100;SDS011;62462;52.530;21.682;2022-09-29T09:30:25;8.88;;;5.78;;
74100;SDS011;62462;52.530;21.682;2022-09-29T09:32:59;12.20;;;7.28;;
74100;SDS011;62462;52.530;21.682;2022-09-29T09:38:02;7.68;;;5.95;;
74100;SDS011;62462;52.530;21.682;2022-09-29T09:40:38;10.43;;;7.00;;
74100;SDS011;62462;52.530;21.682;2022-09-29T09:43:12;6.93;;;5.75;;
74100;SDS011;62462;52.530;21.682;2022-09-29T09:48:35;7.47;;;5.80;;
74100;SDS011;62462;52.530;21.682;2022-09-29T09:51:17;10.10;;;6.20;;
74100;SDS011;62462;52.530;21.682;2022-09-29T09:53:48;6.70;;;5.75;;
74100;SDS011;62462;52.530;21.682;2022-09-29T10:01:18;5.47;;;4.80;;
74100;SDS011;62462;52.530;21.682;2022-09-29T10:03:45;7.57;;;4.93;;
74100;SDS011;62462;52.530;21.682;2022-09-29T10:06:10;8.05;;;6.45;;
74100;SDS011;62462;52.530;21.682;2022-09-29T10:08:37;7.43;;;5.72;;
74100;SDS011;62462;52.530;21.682;2022-09-29T10:16:47;7.25;;;6.00;;
74100;SDS011;62462;52.530;21.682;2022-09-29T10:19:21;7.43;;;4.95;;
74100;SDS011;62462;52.530;21.682;2022-09-29T10:21:48;5.95;;;5.30;;
74100;SDS011;62462;52.530;21.682;2022-09-29T10:24:32;6.80;;;4.32;;
74100;SDS011;62462;52.530;21.682;2022-09-29T10:26:59;6.15;;;4.72;;
74100;SDS011;62462;52.530;21.682;2022-09-29T10:29:33;6.88;;;5.00;;
74100;SDS011;62462;52.530;21.682;2022-09-29T10:32:14;6.22;;;4.68;;
74100;SDS011;62462;52.530;21.682;2022-09-29T10:34:51;3.70;;;3.30;;
74100;SDS011;62462;52.530;21.682;2022-09-29T10:37:47;4.93;;;3.78;;
74100;SDS011;62462;52.530;21.682;2022-09-29T10:40:14;4.43;;;3.65;;
74100;SDS011;62462;52.530;21.682;2022-09-29T10:42:48;4.47;;;4.07;;
74100;SDS011;62462;52.530;21.682;2022-09-29T10:50:33;6.50;;;4.93;;
74100;SDS011;62462;52.530;21.682;2022-09-29T10:53:22;7.82;;;4.45;;
74100;SDS011;62462;52.530;21.682;2022-09-29T10:58:39;4.97;;;4.25;;
74100;SDS011;62462;52.530;21.682;2022-09-29T11:01:14;6.10;;;4.93;;
74100;SDS011;62462;52.530;21.682;2022-09-29T11:03:49;5.88;;;4.65;;
74100;SDS011;62462;52.530;21.682;2022-09-29T11:06:32;6.95;;;5.78;;
74100;SDS011;62462;52.530;21.682;2022-09-29T11:09:00;6.78;;;5.13;;
74100;SDS011;62462;52.530;21.682;2022-09-29T11:13:54;5.82;;;4.35;;
74100;SDS011;62462;52.530;21.682;2022-09-29T11:16:28;4.90;;;4.35;;
74100;SDS011;62462;52.530;21.682;2022-09-29T11:19:01;6.15;;;4.63;;
74100;SDS011;62462;52.530;21.682;2022-09-29T11:29:37;5.50;;;4.18;;
74100;SDS011;62462;52.530;21.682;2022-09-29T11:46:24;4.82;;;3.50;;
74100;SDS011;62462;52.530;21.682;2022-09-29T11:51:53;4.15;;;3.22;;
74100;SDS011;62462;52.530;21.682;2022-09-29T12:00:19;5.40;;;4.07;;
74100;SDS011;62462;52.530;21.682;2022-09-29T12:16:36;4.07;;;3.67;;
74100;SDS011;62462;52.530;21.682;2022-09-29T12:19:16;5.65;;;3.95;;
74100;SDS011;62462;52.530;21.682;2022-09-29T12:21:49;8.80;;;4.25;;
74100;SDS011;62462;52.530;21.682;2022-09-29T12:24:31;4.13;;;3.72;;
74100;SDS011;62462;52.530;21.682;2022-09-29T12:27:50;4.53;;;3.92;;
74100;SDS011;62462;52.530;21.682;2022-09-29T12:30:19;4.80;;;3.92;;
74100;SDS011;62462;52.530;21.682;2022-09-29T12:39:33;4.65;;;4.20;;
74100;SDS011;62462;52.530;21.682;2022-09-29T12:50:17;4.10;;;3.50;;
74100;SDS011;62462;52.530;21.682;2022-09-29T12:58:01;5.05;;;4.45;;
74100;SDS011;62462;52.530;21.682;2022-09-29T13:00:31;3.78;;;3.42;;
74100;SDS011;62462;52.530;21.682;2022-09-29T13:11:23;4.30;;;3.88;;
74100;SDS011;62462;52.530;21.682;2022-09-29T13:19:52;4.88;;;4.00;;
74100;SDS011;62462;52.530;21.682;2022-09-29T13:25:16;4.18;;;3.50;;
74100;SDS011;62462;52.530;21.682;2022-09-29T13:28:11;4.15;;;3.55;;
74100;SDS011;62462;52.530;21.682;2022-09-29T13:31:03;4.75;;;3.97;;
74100;SDS011;62462;52.530;21.682;2022-09-29T13:33:32;3.83;;;3.35;;
74100;SDS011;62462;52.530;21.682;2022-09-29T13:35:59;6.95;;;4.30;;
74100;SDS011;62462;52.530;21.682;2022-09-29T13:38:26;6.18;;;4.18;;
74100;SDS011;62462;52.530;21.682;2022-09-29T13:44:01;8.50;;;6.20;;
74100;SDS011;62462;52.530;21.682;2022-09-29T14:02:18;5.18;;;4.68;;
74100;SDS011;62462;52.530;21.682;2022-09-29T14:08:05;5.70;;;4.70;;
74100;SDS011;62462;52.530;21.682;2022-09-29T14:13:10;5.53;;;4.90;;
74100;SDS011;62462;52.530;21.682;2022-09-29T14:16:04;5.57;;;4.70;;
74100;SDS011;62462;52.530;21.682;2022-09-29T14:18:50;5.90;;;4.05;;
74100;SDS011;62462;52.530;21.682;2022-09-29T14:22:51;4.88;;;4.18;;
74100;SDS011;62462;52.530;21.682;2022-09-29T14:30:00;5.38;;;4.60;;
74100;SDS011;62462;52.530;21.682;2022-09-29T14:32:55;5.60;;;4.32;;
74100;SDS011;62462;52.530;21.682;2022-09-29T14:35:27;5.47;;;4.40;;
74100;SDS011;62462;52.530;21.682;2022-09-29T14:40:54;5.97;;;4.93;;
74100;SDS011;62462;52.530;21.682;2022-09-29T14:43:24;4.35;;;3.92;;
74100;SDS011;62462;52.530;21.682;2022-09-29T15:01:05;5.25;;;3.53;;
74100;SDS011;62462;52.530;21.682;2022-09-29T15:03:52;4.10;;;3.70;;
74100;SDS011;62462;52.530;21.682;2022-09-29T15:06:27;5.72;;;3.70;;
74100;SDS011;62462;52.530;21.682;2022-09-29T15:08:57;3.58;;;3.17;;
74100;SDS011;62462;52.530;21.682;2022-09-29T15:13:54;3.97;;;3.58;;
74100;SDS011;62462;52.530;21.682;2022-09-29T15:16:42;5.07;;;3.03;;
74100;SDS011;62462;52.530;21.682;2022-09-29T15:27:35;4.25;;;3.40;;
74100;SDS011;62462;52.530;21.682;2022-09-29T15:30:03;4.43;;;3.53;;
74100;SDS011;62462;52.530;21.682;2022-09-29T15:35:03;6.00;;;4.82;;
74100;SDS011;62462;52.530;21.682;2022-09-29T15:40:34;4.95;;;4.20;;
74100;SDS011;62462;52.530;21.682;2022-09-29T15:43:02;8.77;;;4.32;;
74100;SDS011;62462;52.530;21.682;2022-09-29T15:45:45;5.78;;;4.72;;
74100;SDS011;62462;52.530;21.682;2022-09-29T15:48:20;6.03;;;5.10;;
74100;SDS011;62462;52.530;21.682;2022-09-29T15:50:45;6.97;;;5.15;;
74100;SDS011;62462;52.530;21.682;2022-09-29T15:53:11;6.85;;;5.40;;
74100;SDS011;62462;52.530;21.682;2022-09-29T15:55:37;7.32;;;5.65;;
74100;SDS011;62462;52.530;21.682;2022-09-29T16:01:04;7.07;;;5.40;;
74100;SDS011;62462;52.530;21.682;2022-09-29T16:03:38;6.53;;;5.50;;
74100;SDS011;62462;52.530;21.682;2022-09-29T16:08:44;8.43;;;6.20;;
74100;SDS011;62462;52.530;21.682;2022-09-29T16:11:19;7.50;;;5.93;;
74100;SDS011;62462;52.530;21.682;2022-09-29T16:13:47;9.80;;;6.40;;
74100;SDS011;62462;52.530;21.682;2022-09-29T16:16:18;11.55;;;7.60;;
74100;SDS011;62462;52.530;21.682;2022-09-29T16:18:51;11.30;;;7.72;;
74100;SDS011;62462;52.530;21.682;2022-09-29T16:21:19;12.88;;;8.50;;
74100;SDS011;62462;52.530;21.682;2022-09-29T16:23:48;13.95;;;8.73;;
74100;SDS011;62462;52.530;21.682;2022-09-29T16:31:50;17.30;;;10.73;;
74100;SDS011;62462;52.530;21.682;2022-09-29T16:37:19;19.50;;;10.98;;
74100;SDS011;62462;52.530;21.682;2022-09-29T16:39:44;15.55;;;10.20;;
74100;SDS011;62462;52.530;21.682;2022-09-29T16:42:30;15.93;;;9.68;;
74100;SDS011;62462;52.530;21.682;2022-09-29T16:44:55;15.30;;;10.38;;
74100;SDS011;62462;52.530;21.682;2022-09-29T16:49:58;15.07;;;9.75;;
74100;SDS011;62462;52.530;21.682;2022-09-29T16:55:23;14.50;;;9.05;;
74100;SDS011;62462;52.530;21.682;2022-09-29T17:00:36;14.07;;;8.98;;
74100;SDS011;62462;52.530;21.682;2022-09-29T17:03:02;12.27;;;9.23;;
74100;SDS011;62462;52.530;21.682;2022-09-29T17:05:30;12.27;;;8.88;;
74100;SDS011;62462;52.530;21.682;2022-09-29T17:10:40;15.13;;;10.05;;
74100;SDS011;62462;52.530;21.682;2022-09-29T17:13:10;13.50;;;9.43;;
74100;SDS011;62462;52.530;21.682;2022-09-29T17:15:38;18.05;;;11.95;;
74100;SDS011;62462;52.530;21.682;2022-09-29T17:18:07;81.05;;;45.45;;
74100;SDS011;62462;52.530;21.682;2022-09-29T17:20:36;239.98;;;146.52;;
74100;SDS011;62462;52.530;21.682;2022-09-29T17:23:01;123.47;;;74.20;;
74100;SDS011;62462;52.530;21.682;2022-09-29T17:25:29;28.20;;;19.13;;
74100;SDS011;62462;52.530;21.682;2022-09-29T17:27:55;24.88;;;15.95;;
74100;SDS011;62462;52.530;21.682;2022-09-29T17:30:42;46.47;;;28.73;;
74100;SDS011;62462;52.530;21.682;2022-09-29T17:33:10;43.63;;;25.42;;
74100;SDS011;62462;52.530;21.682;2022-09-29T17:35:39;36.83;;;22.40;;
74100;SDS011;62462;52.530;21.682;2022-09-29T17:38:11;23.05;;;14.57;;
74100;SDS011;62462;52.530;21.682;2022-09-29T17:43:09;24.48;;;14.18;;
74100;SDS011;62462;52.530;21.682;2022-09-29T17:45:35;25.20;;;15.20;;
74100;SDS011;62462;52.530;21.682;2022-09-29T17:48:03;35.10;;;15.73;;
74100;SDS011;62462;52.530;21.682;2022-09-29T17:50:33;30.85;;;15.05;;
74100;SDS011;62462;52.530;21.682;2022-09-29T17:53:05;34.25;;;16.38;;
74100;SDS011;62462;52.530;21.682;2022-09-29T17:55:32;52.35;;;18.80;;
74100;SDS011;62462;52.530;21.682;2022-09-29T17:57:58;41.67;;;16.45;;
74100;SDS011;62462;52.530;21.682;2022-09-29T18:00:30;29.30;;;15.50;;
74100;SDS011;62462;52.530;21.682;2022-09-29T18:03:02;36.17;;;17.42;;
74100;SDS011;62462;52.530;21.682;2022-09-29T18:05:33;30.27;;;17.98;;
74100;SDS011;62462;52.530;21.682;2022-09-29T18:08:01;51.10;;;21.00;;
74100;SDS011;62462;52.530;21.682;2022-09-29T18:13:07;127.55;;;37.03;;
74100;SDS011;62462;52.530;21.682;2022-09-29T18:15:33;104.45;;;34.80;;
74100;SDS011;62462;52.530;21.682;2022-09-29T18:18:00;73.95;;;28.70;;
74100;SDS011;62462;52.530;21.682;2022-09-29T18:20:29;74.47;;;30.90;;
74100;SDS011;62462;52.530;21.682;2022-09-29T18:22:56;64.60;;;27.17;;
74100;SDS011;62462;52.530;21.682;2022-09-29T18:25:25;58.38;;;26.80;;
74100;SDS011;62462;52.530;21.682;2022-09-29T18:27:52;49.72;;;24.17;;
74100;SDS011;62462;52.530;21.682;2022-09-29T18:30:19;58.97;;;26.77;;
74100;SDS011;62462;52.530;21.682;2022-09-29T18:32:49;54.05;;;26.25;;
74100;SDS011;62462;52.530;21.682;2022-09-29T18:35:17;54.92;;;25.05;;
74100;SDS011;62462;52.530;21.682;2022-09-29T18:37:46;43.28;;;24.60;;
74100;SDS011;62462;52.530;21.682;2022-09-29T18:40:12;57.03;;;31.73;;
74100;SDS011;62462;52.530;21.682;2022-09-29T18:42:39;51.03;;;29.17;;
74100;SDS011;62462;52.530;21.682;2022-09-29T18:45:14;73.55;;;37.33;;
74100;SDS011;62462;52.530;21.682;2022-09-29T18:47:47;76.30;;;37.45;;
74100;SDS011;62462;52.530;21.682;2022-09-29T18:52:45;56.70;;;32.08;;
74100;SDS011;62462;52.530;21.682;2022-09-29T18:55:12;49.50;;;28.27;;
74100;SDS011;62462;52.530;21.682;2022-09-29T18:57:42;39.45;;;23.83;;
74100;SDS011;62462;52.530;21.682;2022-09-29T19:00:10;36.80;;;21.50;;
74100;SDS011;62462;52.530;21.682;2022-09-29T19:02:38;36.25;;;22.52;;
74100;SDS011;62462;52.530;21.682;2022-09-29T19:05:05;40.83;;;21.42;;
74100;SDS011;62462;52.530;21.682;2022-09-29T19:07:32;39.40;;;22.20;;
74100;SDS011;62462;52.530;21.682;2022-09-29T19:09:59;45.33;;;24.98;;
74100;SDS011;62462;52.530;21.682;2022-09-29T19:12:25;44.08;;;23.50;;
74100;SDS011;62462;52.530;21.682;2022-09-29T19:14:53;49.30;;;27.23;;